Latest Coastal Weather Observations for Christmas Island

IDW60701

Issued at 11:03 am WST Thursday 21 September 2017 (issued every 10 minutes, with the page automatically refreshed every 10 minutes)

About coastal observations | Map of coastal stations | Coastal observations for WA | Marine services | Other Formats
Station Details ID: 200790 Name: CHRISTMAS ISLAND AERO Lat: -10.45 Lon: 105.69 Height: 261.0 m
Data from the previous 72 hours. | See also: Recent months at Christmas Island
Date/Time
WST
Temp
°C
Wind Pressure Rain since
9am
mm
Weather Cloud Vis
km
Sea
Height
m
Swell
Dir  Spd
kts
Gust
kts
hPa Trend Height
m
Period
s
Dir
21/11:00am 25.2 ESE 11 16 1015.5 - 0.0 - Partly cloudy 10 - - - -
21/10:30am 25.5 ESE 10 14 1015.6 - 0.0 - Partly cloudy 10 - - - -
21/10:00am 25.1 ESE 11 15 1014.0 - 0.0 - Mostly clear 10 - - - -
21/09:57am 25.2 ESE 11 15 1015.5 - 0.0 - Partly cloudy 10 - - - -
21/09:36am 24.0 E 9 15 1015.6 - 0.0 - Partly cloudy 10 - - - -
21/09:30am 23.9 ESE 11 15 1015.5 - 0.0 - Partly cloudy 10 - - - -
21/09:20am 23.9 ESE 10 15 1015.4 - 0.0 - Partly cloudy 10 - - - -
21/09:00am 24.6 ESE 11 14 1015.3 - 0.0 - Partly cloudy 10 - - - -
21/08:48am 23.9 ESE 11 14 1015.3 - 0.0 - Partly cloudy 10 - - - -
21/08:36am 23.8 SE 10 15 1015.3 - 0.0 - Partly cloudy 10 - - - -
21/08:30am 23.6 SE 9 13 1015.3 - 0.0 - Partly cloudy 10 - - - -
21/08:00am 23.2 SE 11 14 1015.0 - 0.0 - Partly cloudy 10 - - - -
21/07:30am 22.9 SE 8 12 1014.9 - 0.0 - Partly cloudy 10 - - - -
21/07:00am 22.5 SE 9 12 1013.1 - 0.0 - Partly cloudy 10 - - - -
21/06:30am 22.5 SE 8 11 1014.3 - 0.0 - Partly cloudy 10 - - - -
21/06:00am 22.5 SE 10 14 1014.4 - 0.0 - Partly cloudy 10 - - - -
21/05:30am 22.6 SE 9 12 1014.3 - 0.0 - Partly cloudy 10 - - - -
21/05:00am 22.5 SE 9 14 1014.2 - 0.0 - Partly cloudy 10 - - - -
21/04:30am 22.4 SE 8 11 1014.2 - 0.0 - Cloudy 10 - - - -
21/04:00am 22.6 SE 8 11 1013.0 - 0.0 - Partly cloudy 10 - - - -
21/03:30am 22.7 ESE 9 13 1014.5 - 0.0 - Partly cloudy 10 - - - -
21/03:00am 22.8 SE 8 12 1014.6 - 0.0 - Partly cloudy 10 - - - -
21/02:30am 22.8 SE 9 13 1014.9 - 0.0 - Partly cloudy 10 - - - -
21/02:00am 22.8 SE 8 10 1015.0 - 0.0 - Partly cloudy 10 - - - -
21/01:30am 22.8 ESE 8 11 1015.3 - 0.0 - Partly cloudy 10 - - - -
21/01:00am 22.8 SE 7 10 1014.2 - 0.0 - Cloudy 10 - - - -
21/12:30am 22.9 SE 9 11 1015.7 - 0.0 - Partly cloudy 10 - - - -
21/12:18am 23.0 SE 8 11 1015.7 - 0.0 - Partly cloudy 10 - - - -
21/12:00am 23.1 SE 8 11 1015.8 - 0.0 - Partly cloudy 10 - - - -
 
Date/Time
WST
Temp
°C
Wind Pressure Rain since
9am
mm
Weather Cloud Vis
km
Sea
Height
m
Swell
Dir  Spd
kts
Gust
kts
hPa Trend Height
m
Period
s
Dir
20/11:50pm 23.0 SE 8 10 1015.9 - 0.0 - Partly cloudy 10 - - - -
20/11:30pm 22.9 SE 8 11 1016.1 - 0.0 - Partly cloudy 10 - - - -
20/11:00pm 23.1 SE 8 11 1015.9 - 0.0 - Partly cloudy 10 - - - -
20/10:49pm 23.1 ESE 9 13 1015.9 - 0.0 - Partly cloudy 10 - - - -
20/10:30pm 23.3 SE 8 11 1015.7 - 0.0 - Partly cloudy 10 - - - -
20/10:24pm 23.2 SE 8 13 1015.7 - 0.0 - Partly cloudy 10 - - - -
20/10:00pm 23.2 SE 8 12 1014.2 - 0.0 - Partly cloudy 10 - - - -
20/09:30pm 23.1 SE 8 12 1015.3 - 0.0 - Partly cloudy 10 - - - -
20/09:00pm 23.0 SE 9 13 1015.1 - 0.0 - Partly cloudy 10 - - - -
20/08:30pm 22.9 SE 9 13 1014.7 - 0.0 - Partly cloudy 10 - - - -
20/08:00pm 23.1 SE 10 15 1014.6 - 0.0 - Partly cloudy 10 - - - -
20/07:30pm 23.2 SE 9 12 1014.3 - 0.0 - Partly cloudy 10 - - - -
20/07:00pm 23.5 SE 9 12 1012.8 - 0.0 - Mostly cloudy 10 - - - -
20/06:44pm 23.7 SE 8 13 1014.0 - 0.0 - Partly cloudy 10 - - - -
20/06:30pm 23.8 SE 9 13 1013.8 - 0.0 - Partly cloudy 10 - - - -
20/06:02pm 24.3 SE 9 13 1013.6 - 0.0 - Partly cloudy 10 - - - -
20/06:00pm 24.3 SE 9 14 1013.6 - 0.0 - Partly cloudy 10 - - - -
20/05:30pm 24.8 SE 10 13 1013.6 - 0.0 - Partly cloudy 10 - - - -
20/05:00pm 24.8 ESE 10 14 1013.6 - 0.0 - Partly cloudy 10 - - - -
20/04:42pm 24.6 ESE 11 16 1013.6 - 0.0 - Partly cloudy 10 - - - -
20/04:30pm 25.2 ESE 11 15 1013.6 - 0.0 - Partly cloudy 10 - - - -
20/04:29pm 25.1 ESE 11 15 1013.6 - 0.0 - Partly cloudy 10 - - - -
20/04:00pm 25.1 ESE 11 16 1012.2 - 0.0 - Mostly cloudy 10 - - - -
20/03:30pm 25.5 ESE 12 16 1013.6 - 0.0 - Partly cloudy 10 - - - -
20/03:00pm 25.3 ESE 13 17 1014.0 - 0.0 - Partly cloudy 10 - - - -
20/02:30pm 25.5 ESE 13 17 1014.4 - 0.0 - Partly cloudy 10 - - - -
20/02:00pm 25.5 SE 12 18 1014.7 - 0.0 - Partly cloudy 10 - - - -
20/01:30pm 26.1 ESE 11 17 1014.9 - 0.0 - Partly cloudy 10 - - - -
20/01:00pm 26.3 SE 12 18 1013.9 - 0.0 - Partly cloudy 10 - - - -
20/12:30pm 26.5 ESE 14 18 1016.1 - 0.0 - Partly cloudy 10 - - - -
20/12:00pm 25.7 ESE 14 18 1016.4 - 0.0 - Partly cloudy 10 - - - -
20/11:30am 25.7 ESE 13 17 1016.8 - 0.0 - Partly cloudy 10 - - - -
20/11:00am 25.1 ESE 14 18 1017.0 - 0.0 - Partly cloudy 10 - - - -
20/10:30am 25.9 ESE 13 18 1017.0 - 0.0 - Partly cloudy 10 - - - -
20/10:00am 25.2 ESE 14 18 1015.8 - 0.0 - Cloudy 10 - - - -
20/09:30am 24.5 ESE 13 17 1017.2 - 0.0 - Partly cloudy 10 - - - -
20/09:00am 24.7 ESE 13 19 1017.1 - 0.0 - Partly cloudy 10 - - - -
20/08:30am 24.4 ESE 13 19 1016.8 - 0.0 - Partly cloudy 10 - - - -
20/08:00am 23.9 ESE 12 17 1016.7 - 0.0 - Partly cloudy 10 - - - -
20/07:30am 23.4 ESE 12 16 1016.5 - 0.0 - Partly cloudy 10 - - - -
20/07:00am 23.1 ESE 12 17 1014.6 - 0.0 - Partly cloudy 10 - - - -
20/06:30am 23.1 ESE 12 17 1015.7 - 0.0 - Partly cloudy 10 - - - -
20/06:00am 23.2 ESE 13 17 1015.5 - 0.0 - Partly cloudy 10 - - - -
20/05:30am 23.0 SE 12 16 1015.2 - 0.0 - Partly cloudy 10 - - - -
20/05:00am 23.0 SE 13 17 1015.1 - 0.0 - Partly cloudy 10 - - - -
20/04:30am 23.1 SE 12 18 1015.0 - 0.0 - Partly cloudy 10 - - - -
20/04:00am 23.0 SE 12 18 1013.8 - 0.0 - Partly cloudy 10 - - - -
20/03:30am 23.1 SE 12 18 1015.4 - 0.0 - Partly cloudy 10 - - - -
20/03:00am 22.9 SE 11 15 1015.5 - 0.0 - Partly cloudy 10 - - - -
20/02:30am 22.8 SE 11 15 1015.6 - 0.0 - Partly cloudy 10 - - - -
20/02:00am 22.9 SE 11 15 1015.8 - 0.0 - Partly cloudy 10 - - - -
20/01:30am 23.0 SE 10 15 1015.9 - 0.0 - Partly cloudy 10 - - - -
20/01:00am 23.0 SE 10 15 1014.7 - 0.0 - Mostly clear 10 - - - -
20/12:30am 23.1 SE 11 17 1016.6 - 0.0 - Partly cloudy 10 - - - -
20/12:00am 23.1 SE 11 14 1016.6 - 0.0 - Partly cloudy 10 - - - -
 
Date/Time
WST
Temp
°C
Wind Pressure Rain since
9am
mm
Weather Cloud Vis
km
Sea
Height
m
Swell
Dir  Spd
kts
Gust
kts
hPa Trend Height
m
Period
s
Dir
19/11:30pm 23.1 SE 11 16 1016.8 - 0.0 - Partly cloudy 10 - - - -
19/11:00pm 23.3 SE 11 16 1016.7 - 0.0 - Partly cloudy 10 - - - -
19/10:30pm 23.3 SE 10 15 1016.6 - 0.0 - Partly cloudy 10 - - - -
19/10:00pm 23.3 SE 9 13 1015.0 - 0.0 - Partly cloudy 10 - - - -
19/09:30pm 23.2 SE 9 13 1015.9 - 0.0 - Partly cloudy 10 - - - -
19/09:00pm 23.3 SE 10 16 1015.7 - 0.0 - Partly cloudy 10 - - - -
19/08:30pm 23.5 SE 10 14 1015.4 - 0.0 - Partly cloudy 10 - - - -
19/08:00pm 23.4 SE 10 13 1015.0 - 0.0 - Partly cloudy 10 - - - -
19/07:30pm 23.7 SE 9 13 1014.6 - 0.0 - Partly cloudy 10 - - - -
19/07:00pm 23.6 SE 10 15 1012.9 - 0.0 - Cloudy 10 - - - -
19/06:30pm 24.1 ESE 10 13 1014.2 - 0.0 - Partly cloudy 10 - - - -
19/06:00pm 24.5 ESE 9 14 1013.9 - 0.0 - Partly cloudy 10 - - - -
19/05:34pm 25.0 ESE 10 14 1013.7 - 0.0 - Partly cloudy 10 - - - -
19/05:30pm 24.9 ESE 10 14 1013.6 - 0.0 - Partly cloudy 10 - - - -
19/05:00pm 24.8 ESE 11 16 1013.5 - 0.0 - Partly cloudy 10 - - - -
19/04:56pm 24.8 ESE 12 16 1013.4 - 0.0 - Partly cloudy 10 - - - -
19/04:30pm 25.1 ESE 12 17 1013.5 - 0.0 - Partly cloudy 10 - - - -
19/04:00pm 25.2 ESE 12 16 1012.2 - 0.0 - Cloudy 10 - - - -
19/03:30pm 26.0 ESE 13 18 1013.9 - 0.0 - Partly cloudy 10 - - - -
19/03:00pm 25.4 ESE 13 18 1014.1 - 0.0 - Partly cloudy 10 - - - -
19/02:30pm 26.2 ESE 13 17 1014.5 - 0.0 - Partly cloudy 10 - - - -
19/02:00pm 26.6 ESE 12 17 1015.2 - 0.0 - Partly cloudy 10 - - - -
19/01:30pm 26.7 ESE 12 17 1015.6 - 0.0 - Partly cloudy 10 - - - -
19/01:00pm 26.8 ESE 13 18 1014.6 - 0.0 - Mostly clear 10 - - - -
19/12:30pm 26.1 ESE 12 17 1016.5 - 0.0 - Partly cloudy 10 - - - -
19/12:00pm 26.1 ESE 12 18 1016.9 - 0.0 - Partly cloudy 10 - - - -
19/11:30am 26.0 E 12 19 1017.3 - 0.0 - Partly cloudy 10 - - - -
19/11:17am 26.2 ESE 12 18 1017.5 - 0.0 - Partly cloudy 10 - - - -
19/11:01am 26.4 E 13 18 1017.6 - 0.0 - Partly cloudy 10 - - - -
19/10:58am 25.9 ESE 12 17 1017.7 - 0.0 - Partly cloudy 10 - - - -
19/10:30am 25.4 ESE 11 16 1017.9 - 0.0 - Partly cloudy 10 - - - -
19/10:00am 24.9 ESE 11 16 1016.6 - 0.0 - Cloudy 10 - - - -
19/09:30am 25.2 ESE 12 17 1018.1 - 0.0 - Partly cloudy 10 - - - -
19/09:00am 25.2 ESE 11 15 1018.0 - 0.0 - Partly cloudy 10 - - - -
19/08:30am 25.4 ESE 11 16 1017.6 - 0.0 - Partly cloudy 10 - - - -
19/08:01am 23.6 ESE 11 16 1017.4 - 0.0 - Partly cloudy 10 - - - -
19/08:00am 23.6 ESE 11 16 1017.4 - 0.0 - Partly cloudy 10 - - - -
19/07:48am 23.8 ESE 12 17 1017.2 - 0.0 - Partly cloudy 10 - - - -
19/07:39am 23.5 ESE 11 16 1017.1 - 0.0 - Partly cloudy 10 - - - -
19/07:30am 23.2 ESE 11 15 1017.0 - 0.0 - Partly cloudy 10 - - - -
19/07:22am 23.4 ESE 12 18 1016.9 - 0.0 - Partly cloudy 10 - - - -
19/07:00am 23.2 SE 11 16 1015.3 - 0.0 - Cloudy 10 - - - -
19/06:57am 23.2 SE 11 16 1016.7 - 0.0 - Partly cloudy 10 - - - -
19/06:30am 23.0 SE 11 16 1016.3 - 0.0 - Partly cloudy 10 - - - -
19/06:03am 23.0 SE 10 14 1015.9 - 0.0 - Partly cloudy 10 - - - -
19/06:00am 23.0 SE 10 14 1015.9 - 0.0 - Partly cloudy 10 - - - -
19/05:59am 23.0 SE 11 14 1015.9 - 0.0 - Partly cloudy 10 - - - -
19/05:46am 23.1 SE 10 14 1015.8 - 0.0 - Partly cloudy 10 - - - -
19/05:30am 22.9 SE 12 16 1015.8 - 0.0 - Partly cloudy 10 - - - -
19/05:00am 22.9 SE 10 15 1015.8 - 0.0 - Partly cloudy 10 - - - -
19/04:45am 22.9 ESE 11 15 1015.8 - 0.0 - Partly cloudy 10 - - - -
19/04:35am 23.2 ESE 11 16 1015.8 - 0.0 - Partly cloudy 10 - - - -
19/04:30am 23.2 ESE 10 16 1015.8 - 0.0 - Partly cloudy 10 - - - -
19/04:07am 23.0 ESE 11 16 1015.9 - 0.0 - Partly cloudy 10 - - - -
19/04:00am 23.1 ESE 11 15 1014.6 - 0.0 - Mostly cloudy 10 - - - -
19/03:54am 23.0 ESE 10 15 1016.1 - 0.0 - Partly cloudy 10 - - - -
19/03:30am 23.1 SE 10 15 1016.2 - 0.0 - Partly cloudy 10 - - - -
19/03:00am 23.2 ESE 11 15 1016.3 - 0.0 - Partly cloudy 10 - - - -
19/02:30am 23.1 ESE 10 14 1016.4 - 0.0 - Partly cloudy 10 - - - -
19/02:12am 23.3 ESE 10 16 1016.5 - 0.0 - Partly cloudy 10 - - - -
19/02:10am 23.4 ESE 10 16 1016.5 - 0.0 - Partly cloudy 10 - - - -
19/02:00am 23.3 ESE 11 17 1016.6 - 0.0 - Partly cloudy 10 - - - -
19/01:57am 23.3 ESE 10 13 1016.6 - 0.0 - Partly cloudy 10 - - - -
19/01:51am 23.4 ESE 11 16 1016.6 - 0.0 - Partly cloudy 10 - - - -
19/01:36am 23.5 ESE 10 15 1016.6 - 0.0 - Partly cloudy 10 - - - -
19/01:34am 23.5 ESE 10 15 1016.6 - 0.0 - Partly cloudy 10 - - - -
19/01:30am 23.4 ESE 11 15 1016.7 - 0.0 - Partly cloudy 10 - - - -
19/01:00am 23.4 ESE 9 12 1015.3 - 0.0 - Cloudy 10 - - - -
19/12:30am 23.5 ESE 11 16 1016.8 - 0.0 - Partly cloudy 10 - - - -
19/12:00am 23.4 ESE 11 16 1017.0 - 0.0 - Partly cloudy 10 - - - -
 
Date/Time
WST
Temp
°C
Wind Pressure Rain since
9am
mm
Weather Cloud Vis
km
Sea
Height
m
Swell
Dir  Spd
kts
Gust
kts
hPa Trend Height
m
Period
s
Dir
18/11:46pm 23.4 ESE 10 15 1017.0 - 0.0 - Partly cloudy 10 - - - -
18/11:30pm 23.4 ESE 11 15 1017.0 - 0.0 - Partly cloudy 10 - - - -
18/11:20pm 23.5 ESE 11 16 1017.0 - 0.0 - Partly cloudy 10 - - - -
18/11:04pm 23.5 SE 12 17 1017.1 - 0.0 - Partly cloudy 10 - - - -
18/11:00pm 23.6 SE 11 16 1017.1 - 0.0 - Partly cloudy 10 - - - -
18/10:37pm 23.6 SE 13 17 1016.9 - 0.0 - Partly cloudy 10 - - - -
18/10:30pm 23.5 SE 11 15 1016.9 - 0.0 - Partly cloudy 10 - - - -
18/10:13pm 23.6 SE 12 19 1016.8 - 0.0 - Partly cloudy 10 - - - -
18/10:06pm 23.5 SE 12 19 1016.7 - 0.0 - Partly cloudy 10 - - - -
18/10:00pm 23.5 SE 13 17 1015.2 - 0.0 - Cloudy 10 - - - -
18/09:36pm 23.6 SE 12 17 1016.5 - 0.0 - Partly cloudy 10 - - - -
18/09:31pm 23.5 SE 12 16 1016.5 - 0.0 - Partly cloudy 10 - - - -
18/09:30pm 23.5 SE 12 16 1016.5 - 0.0 - Partly cloudy 10 - - - -
18/09:00pm 23.5 SE 11 15 1016.3 - 0.0 - Partly cloudy 10 - - - -
18/08:39pm 23.5 SE 12 16 1016.1 - 0.0 - Partly cloudy 10 - - - -
18/08:30pm 23.5 SE 11 17 1015.9 - 0.0 - Partly cloudy 10 - - - -
18/08:00pm 23.5 ESE 10 14 1015.3 - 0.0 - Partly cloudy 10 - - - -
18/07:30pm 23.6 SE 10 15 1015.0 - 0.0 - Partly cloudy 10 - - - -
18/07:00pm 23.6 ESE 10 14 1013.4 - 0.0 - Cloudy 10 - - - -
18/06:37pm 23.8 ESE 10 15 1014.6 - 0.0 - Partly cloudy 10 - - - -
18/06:30pm 24.0 ESE 11 16 1014.5 - 0.0 - Partly cloudy 10 - - - -
18/06:00pm 24.3 ESE 11 18 1014.4 - 0.0 - Partly cloudy 10 - - - -
18/05:30pm 24.6 ESE 12 16 1014.3 - 0.0 - Partly cloudy 10 - - - -
18/05:00pm 25.1 ESE 13 17 1014.2 - 0.0 - Partly cloudy 10 - - - -
18/04:52pm 24.8 ESE 12 17 1014.2 - 0.0 - Partly cloudy 10 - - - -
18/04:30pm 25.2 ESE 13 17 1014.3 - 0.0 - Partly cloudy 10 - - - -
18/04:00pm 25.4 ESE 13 18 1013.1 - 0.0 - Cloudy 10 - - - -
18/03:37pm 25.7 ESE 13 18 1014.7 - 0.0 - Partly cloudy 10 - - - -
18/03:35pm 26.0 ESE 13 18 1014.7 - 0.0 - Partly cloudy 10 - - - -
18/03:30pm 26.3 ESE 13 17 1014.7 - 0.0 - Partly cloudy 10 - - - -
18/03:00pm 26.0 ESE 13 18 1015.1 - 0.0 - Partly cloudy 10 - - - -
18/02:30pm 25.9 ESE 13 18 1015.5 - 0.0 - Partly cloudy 10 - - - -
18/02:00pm 26.1 ESE 13 18 1016.1 - 0.0 - Partly cloudy 10 - - - -
18/01:30pm 26.1 ESE 12 18 1016.4 - 0.0 - Partly cloudy 10 - - - -
18/01:05pm 26.4 ESE 12 18 - - 0.0 - Partly cloudy 10 - - - -
18/01:00pm 26.2 ESE 12 18 1015.4 - 0.0 - Partly cloudy 10 - - - -
18/12:30pm 26.7 ESE 12 20 1017.2 - 0.0 - Cloudy 10 - - - -

Other Formats:

Comma delimited format used in spreadsheet applications
http://www.bom.gov.au/fwo/IDW60701/IDW60701.96995.axf

JavaScript Object Notation format (JSON) in row-major order
http://www.bom.gov.au/fwo/IDW60701/IDW60701.96995.json